Time;durP1;ratioP1;P1;durP2;ratioP2;P2;SDS_P1;SDS_P2;PMS_P1;PMS_P2;Temp;Humidity;BMP_temperature;BMP_pressure;BME280_temperature;BME280_humidity;BME280_pressure;Samples;Min_cycle;Max_cycle;Signal;HPM_P1;HPM_P2
2022/04/12 00:00:32;;;;;;;14.85;6.72;;;12.40;86.60;;;;;;4933981;29;20059;-71
2022/04/12 00:02:58;;;;;;;15.50;6.32;;;12.30;86.30;;;;;;4933818;29;20591;-71
2022/04/12 00:05:24;;;;;;;16.77;6.45;;;12.30;86.60;;;;;;4933761;29;20111;-72
2022/04/12 00:07:49;;;;;;;15.90;6.32;;;12.20;86.00;;;;;;4934329;29;20091;-72
2022/04/12 00:10:16;;;;;;;10.82;5.93;;;12.10;86.30;;;;;;4933373;29;20040;-72
2022/04/12 00:12:42;;;;;;;16.13;6.80;;;12.10;86.50;;;;;;4933634;29;20043;-72
2022/04/12 00:15:09;;;;;;;15.85;6.63;;;12.10;86.50;;;;;;4933488;29;20040;-72
2022/04/12 00:20:21;;;;;;;14.38;5.88;;;12.10;87.50;;;;;;4933994;29;20039;-72
2022/04/12 00:22:47;;;;;;;15.43;6.60;;;12.10;87.20;;;;;;4934172;29;20078;-72
2022/04/12 00:25:14;;;;;;;14.48;6.70;;;12.10;86.70;;;;;;4934302;29;20107;-71
2022/04/12 00:27:41;;;;;;;16.40;6.47;;;12.10;86.80;;;;;;4930496;29;20040;-71
2022/04/12 00:30:09;;;;;;;20.65;6.43;;;12.10;87.30;;;;;;4933729;29;20032;-71
2022/04/12 00:32:35;;;;;;;10.10;5.65;;;12.10;87.40;;;;;;4936904;29;20032;-71
2022/04/12 00:35:02;;;;;;;15.98;5.60;;;12.10;87.40;;;;;;4937192;29;20055;-71
2022/04/12 00:37:28;;;;;;;15.88;6.53;;;12.10;87.50;;;;;;4936549;29;20035;-72
2022/04/12 00:39:54;;;;;;;14.27;6.38;;;12.10;87.30;;;;;;4936690;29;20043;-71
2022/04/12 00:42:20;;;;;;;11.43;5.45;;;12.10;87.00;;;;;;4936995;29;20106;-71
2022/04/12 00:44:46;;;;;;;11.93;5.32;;;12.10;87.50;;;;;;4937279;29;20047;-72
2022/04/12 00:47:13;;;;;;;19.42;7.32;;;12.10;86.80;;;;;;4937045;29;20096;-71
2022/04/12 00:49:39;;;;;;;12.73;6.20;;;12.10;86.70;;;;;;4919527;29;20039;-71
2022/04/12 00:52:06;;;;;;;11.48;5.18;;;12.10;87.40;;;;;;4937201;29;20036;-71
2022/04/12 00:54:33;;;;;;;13.13;7.28;;;12.10;87.30;;;;;;4936870;29;20051;-71
2022/04/12 00:56:59;;;;;;;16.20;6.60;;;12.10;86.60;;;;;;4937578;29;20039;-71
2022/04/12 00:59:26;;;;;;;12.32;6.00;;;12.00;87.30;;;;;;4936559;29;20131;-71
2022/04/12 01:01:52;;;;;;;10.57;5.90;;;11.90;87.30;;;;;;4936970;29;20461;-71
2022/04/12 01:04:19;;;;;;;12.77;6.95;;;11.80;87.70;;;;;;4936522;29;20040;-71
2022/04/12 01:06:46;;;;;;;15.60;7.22;;;11.80;87.70;;;;;;4919348;29;20035;-71
2022/04/12 01:09:12;;;;;;;13.13;6.32;;;11.80;87.60;;;;;;4936384;29;20087;-71
2022/04/12 01:11:39;;;;;;;16.65;7.55;;;11.80;87.80;;;;;;4937219;29;20028;-71
2022/04/12 01:14:06;;;;;;;14.45;6.05;;;11.80;87.30;;;;;;4936665;29;20094;-71
2022/04/12 01:16:33;;;;;;;13.80;6.03;;;11.80;88.20;;;;;;4937067;29;20369;-72
2022/04/12 01:18:58;;;;;;;8.15;5.53;;;11.90;88.00;;;;;;4936514;29;20055;-71
2022/04/12 01:21:30;;;;;;;11.30;6.65;;;11.80;87.80;;;;;;4936551;29;22028;-71
2022/04/12 01:24:03;;;;;;;14.82;7.35;;;11.80;87.40;;;;;;4936659;29;20036;-71
2022/04/12 01:26:30;;;;;;;14.68;7.05;;;11.80;88.10;;;;;;4936454;29;20044;-70
2022/04/12 01:28:56;;;;;;;13.63;7.15;;;11.70;87.50;;;;;;4936067;29;20122;-72
2022/04/12 01:31:24;;;;;;;20.70;8.23;;;11.60;87.80;;;;;;4936363;29;20031;-70
2022/04/12 01:33:51;;;;;;;14.80;7.28;;;11.50;87.90;;;;;;4930733;29;20047;-71
2022/04/12 01:36:16;;;;;;;18.00;8.18;;;11.40;88.80;;;;;;4918990;29;20474;-70
2022/04/12 01:38:42;;;;;;;14.20;6.90;;;11.30;89.00;;;;;;4936528;29;20121;-72
2022/04/12 01:41:08;;;;;;;13.85;6.68;;;11.40;88.90;;;;;;4935752;29;20036;-71
2022/04/12 01:43:34;;;;;;;15.27;7.85;;;11.40;88.70;;;;;;4936126;29;20457;-71
2022/04/12 01:46:00;;;;;;;16.60;8.55;;;11.40;88.90;;;;;;4936386;29;20063;-72
2022/04/12 01:48:26;;;;;;;15.88;7.88;;;11.30;88.50;;;;;;4935951;29;20074;-72
2022/04/12 01:50:52;;;;;;;12.73;7.38;;;11.30;89.10;;;;;;4930539;29;20059;-71
2022/04/12 01:53:17;;;;;;;13.27;7.05;;;11.20;89.10;;;;;;4934475;29;20043;-71
2022/04/12 01:55:43;;;;;;;13.20;7.38;;;11.20;89.00;;;;;;4935931;29;20044;-71
2022/04/12 01:58:08;;;;;;;11.90;7.30;;;11.20;88.90;;;;;;4935876;29;20039;-71
2022/04/12 02:00:36;;;;;;;14.73;7.78;;;11.30;88.60;;;;;;4935342;29;20437;-70
2022/04/12 02:03:06;;;;;;;18.60;9.13;;;11.30;88.60;;;;;;4935809;29;20042;-71
2022/04/12 02:05:31;;;;;;;19.98;7.93;;;11.20;88.50;;;;;;4934828;29;20091;-71
2022/04/12 02:07:57;;;;;;;11.73;6.53;;;11.20;88.70;;;;;;4935679;29;20144;-71
2022/04/12 02:10:23;;;;;;;12.15;7.78;;;11.20;89.30;;;;;;4935196;29;20091;-71
2022/04/12 02:12:49;;;;;;;17.65;7.68;;;11.30;88.90;;;;;;4918944;29;20354;-70
2022/04/12 02:15:16;;;;;;;12.63;8.25;;;11.20;88.90;;;;;;4935668;29;20043;-71
2022/04/12 02:17:42;;;;;;;13.80;7.85;;;11.10;88.60;;;;;;4932185;29;20044;-71
2022/04/12 02:20:08;;;;;;;17.58;9.65;;;11.10;89.30;;;;;;4932838;29;20046;-71
2022/04/12 02:22:34;;;;;;;9.27;7.97;;;11.10;88.30;;;;;;4935503;29;20048;-71
2022/04/12 02:25:00;;;;;;;17.33;10.30;;;11.00;89.70;;;;;;4935686;29;20040;-71
2022/04/12 02:27:26;;;;;;;17.80;9.65;;;11.00;88.60;;;;;;4934885;29;20044;-71
2022/04/12 02:29:52;;;;;;;19.38;9.98;;;10.90;89.10;;;;;;4934367;29;20115;-71
2022/04/12 02:32:17;;;;;;;19.58;7.93;;;10.80;89.60;;;;;;4933853;29;20043;-71
2022/04/12 02:34:43;;;;;;;15.93;8.80;;;10.80;90.10;;;;;;4935456;29;20036;-71
2022/04/12 02:37:09;;;;;;;17.30;9.40;;;10.80;89.60;;;;;;4935139;29;20040;-71
2022/04/12 02:39:34;;;;;;;13.98;9.15;;;10.80;89.90;;;;;;4934290;29;20585;-71
2022/04/12 02:42:00;;;;;;;14.57;8.85;;;10.80;89.50;;;;;;4935223;29;20387;-71
2022/04/12 02:44:26;;;;;;;12.05;8.07;;;10.80;89.30;;;;;;4934594;29;20045;-71
2022/04/12 02:46:51;;;;;;;25.58;9.57;;;10.90;89.40;;;;;;4934369;29;20114;-71
2022/04/12 02:49:17;;;;;;;13.20;9.30;;;10.90;89.00;;;;;;4934707;29;20035;-71
2022/04/12 02:51:43;;;;;;;14.45;8.88;;;10.90;89.10;;;;;;4934843;29;20083;-71
2022/04/12 02:54:08;;;;;;;17.88;9.40;;;11.00;88.60;;;;;;4934228;29;20481;-71
2022/04/12 02:56:34;;;;;;;17.45;10.82;;;10.90;87.90;;;;;;4934902;29;20048;-71
2022/04/12 02:58:59;;;;;;;19.77;10.05;;;10.70;88.40;;;;;;4935158;29;20031;-70
2022/04/12 03:01:25;;;;;;;15.85;8.90;;;10.70;88.60;;;;;;4934272;29;20036;-70
2022/04/12 03:03:51;;;;;;;18.70;10.48;;;10.70;89.00;;;;;;4934851;29;20098;-70
2022/04/12 03:06:16;;;;;;;13.32;8.57;;;10.60;88.90;;;;;;4934274;29;20413;-70
2022/04/12 03:08:42;;;;;;;14.43;8.98;;;10.70;89.30;;;;;;4934619;29;20040;-71
2022/04/12 03:11:08;;;;;;;14.15;9.50;;;10.80;88.50;;;;;;4934677;29;20039;-71
2022/04/12 03:13:33;;;;;;;18.90;9.75;;;10.50;89.00;;;;;;4935019;29;20118;-71
2022/04/12 03:15:59;;;;;;;12.50;10.15;;;10.50;89.70;;;;;;4934127;29;20048;-70
2022/04/12 03:18:25;;;;;;;16.25;9.90;;;10.30;89.50;;;;;;4933577;29;20199;-70
2022/04/12 03:20:51;;;;;;;19.05;8.18;;;10.30;89.30;;;;;;4917672;29;20524;-70
2022/04/12 03:23:18;;;;;;;11.93;8.38;;;10.30;89.90;;;;;;4934565;29;20163;-70
2022/04/12 03:25:44;;;;;;;14.68;9.43;;;10.40;89.30;;;;;;4935031;29;20469;-70
2022/04/12 03:28:10;;;;;;;12.88;8.63;;;10.50;89.00;;;;;;4934566;29;20047;-70
2022/04/12 03:30:36;;;;;;;11.82;9.02;;;10.50;88.50;;;;;;4933894;29;20465;-70
2022/04/12 03:33:02;;;;;;;14.60;9.65;;;10.50;88.50;;;;;;4934559;29;20106;-70
2022/04/12 03:35:28;;;;;;;12.93;8.73;;;10.50;88.10;;;;;;4935026;29;20032;-70
2022/04/12 03:37:59;;;;;;;12.90;8.48;;;10.50;88.50;;;;;;4934551;29;20039;-70
2022/04/12 03:40:27;;;;;;;13.98;9.57;;;10.50;88.50;;;;;;4934311;29;20043;-70
2022/04/12 03:42:53;;;;;;;11.98;9.02;;;10.50;88.20;;;;;;4934830;29;20055;-70
2022/04/12 03:45:19;;;;;;;15.07;8.98;;;10.60;87.40;;;;;;4933794;29;20035;-70
2022/04/12 03:47:45;;;;;;;13.05;8.85;;;10.60;87.70;;;;;;4934170;29;20126;-70
2022/04/12 03:50:10;;;;;;;12.13;8.88;;;10.70;87.60;;;;;;4934144;29;20058;-70
2022/04/12 03:52:36;;;;;;;13.27;9.98;;;10.70;86.90;;;;;;4917510;29;20087;-70
2022/04/12 03:55:04;;;;;;;15.63;10.10;;;10.50;87.40;;;;;;4934315;29;20032;-70
2022/04/12 03:57:30;;;;;;;13.82;9.25;;;10.40;87.80;;;;;;4933586;29;20448;-70
2022/04/12 03:59:56;;;;;;;13.27;9.55;;;10.40;88.00;;;;;;4934247;29;20064;-70
2022/04/12 04:02:22;;;;;;;16.05;10.60;;;10.40;88.30;;;;;;4933634;29;20052;-70
2022/04/12 04:04:47;;;;;;;16.52;10.40;;;10.40;87.90;;;;;;4935381;29;20102;-70
2022/04/12 04:07:13;;;;;;;16.02;9.63;;;10.30;88.20;;;;;;4937810;29;20032;-71
2022/04/12 04:09:38;;;;;;;13.20;9.57;;;10.20;88.30;;;;;;4933730;29;20142;-71
2022/04/12 04:12:05;;;;;;;21.05;13.13;;;10.30;88.30;;;;;;4938082;29;20058;-70
2022/04/12 04:14:34;;;;;;;14.73;9.23;;;10.20;88.50;;;;;;4936919;29;20040;-71
2022/04/12 04:17:03;;;;;;;18.90;11.00;;;10.10;89.20;;;;;;4937692;29;20047;-71
2022/04/12 04:19:28;;;;;;;16.80;11.15;;;10.10;88.70;;;;;;4937153;29;20040;-71
2022/04/12 04:21:55;;;;;;;17.20;11.57;;;10.20;88.60;;;;;;4937524;29;20043;-71
2022/04/12 04:24:22;;;;;;;15.35;10.20;;;10.20;88.70;;;;;;4936723;29;20043;-71
2022/04/12 04:26:49;;;;;;;14.82;11.23;;;10.20;88.70;;;;;;4938040;29;20516;-70
2022/04/12 04:29:15;;;;;;;18.17;10.88;;;10.00;89.20;;;;;;4937330;29;20038;-71
2022/04/12 04:31:40;;;;;;;21.85;11.30;;;10.20;89.20;;;;;;4937111;29;20044;-71
2022/04/12 04:34:06;;;;;;;15.20;11.07;;;10.10;89.40;;;;;;4937567;29;20036;-71
2022/04/12 04:36:31;;;;;;;21.40;9.70;;;10.10;89.60;;;;;;4937817;29;20460;-71
2022/04/12 04:38:57;;;;;;;17.60;9.98;;;10.10;89.20;;;;;;4920177;29;20071;-71
2022/04/12 04:41:23;;;;;;;18.80;10.55;;;10.20;89.30;;;;;;4936865;29;20544;-70
2022/04/12 04:43:49;;;;;;;17.98;11.23;;;10.20;88.80;;;;;;4937408;29;20694;-71
2022/04/12 04:46:14;;;;;;;14.35;9.82;;;10.20;88.80;;;;;;4936300;29;20048;-71
2022/04/12 04:48:41;;;;;;;17.33;12.68;;;10.20;88.90;;;;;;4937145;29;20111;-71
2022/04/12 04:51:07;;;;;;;15.25;9.77;;;10.20;88.20;;;;;;4936151;29;20038;-70
2022/04/12 04:53:36;;;;;;;16.48;9.32;;;10.20;88.90;;;;;;4937003;29;20044;-71
2022/04/12 04:56:02;;;;;;;14.32;10.13;;;10.30;88.20;;;;;;4936996;29;20039;-79
2022/04/12 04:58:28;;;;;;;15.93;9.52;;;10.20;87.90;;;;;;4936759;29;20050;-71
2022/04/12 05:00:53;;;;;;;15.82;10.98;;;10.30;88.20;;;;;;4936571;29;20043;-71
2022/04/12 05:03:19;;;;;;;14.55;9.73;;;10.20;87.60;;;;;;4934438;29;20071;-71
2022/04/12 05:05:45;;;;;;;15.77;9.20;;;10.10;88.00;;;;;;4919209;29;20480;-71
2022/04/12 05:08:10;;;;;;;14.38;10.25;;;10.20;88.20;;;;;;4934687;29;20040;-70
2022/04/12 05:10:36;;;;;;;17.25;11.13;;;10.10;87.30;;;;;;4937245;29;20149;-70
2022/04/12 05:13:02;;;;;;;18.88;11.48;;;10.10;87.50;;;;;;4936255;29;20044;-74
2022/04/12 05:15:28;;;;;;;17.45;10.27;;;9.90;87.50;;;;;;4935847;29;20050;-74
2022/04/12 05:17:55;;;;;;;13.02;9.45;;;9.70;88.60;;;;;;4933629;29;20036;-74
2022/04/12 05:20:22;;;;;;;15.38;10.88;;;9.60;89.00;;;;;;4933517;29;20048;-74
2022/04/12 05:22:48;;;;;;;11.93;8.75;;;9.50;89.40;;;;;;4934108;29;20044;-74
2022/04/12 05:25:14;;;;;;;14.80;9.02;;;9.50;89.50;;;;;;4935481;29;20040;-74
2022/04/12 05:27:43;;;;;;;20.05;10.27;;;9.60;89.00;;;;;;4954872;23;20065;-74
2022/04/12 05:32:47;;;;;;;18.55;9.63;;;9.70;88.90;;;;;;4838778;26;20107;-83
2022/04/12 05:35:14;;;;;;;16.20;9.23;;;9.90;87.40;;;;;;4948360;29;20058;-82
2022/04/12 05:37:48;;;;;;;14.23;8.90;;;9.80;87.70;;;;;;4936665;29;20050;-75
2022/04/12 05:40:15;;;;;;;13.50;8.80;;;9.80;87.70;;;;;;4953663;28;20106;-75
2022/04/12 05:42:42;;;;;;;16.73;9.80;;;9.70;87.80;;;;;;4953268;28;20108;-75
2022/04/12 05:45:09;;;;;;;19.05;9.32;;;9.70;88.00;;;;;;4954055;28;20520;-75
2022/04/12 05:47:51;;;;;;;14.45;10.35;;;9.80;87.60;;;;;;4953458;28;20115;-75
2022/04/12 05:50:19;;;;;;;12.10;7.93;;;9.80;87.40;;;;;;4938440;29;20032;-75
2022/04/12 05:52:45;;;;;;;17.83;9.73;;;9.90;87.90;;;;;;4936681;29;20448;-80
2022/04/12 05:55:15;;;;;;;14.05;8.73;;;10.00;86.90;;;;;;4937542;29;20165;-74
2022/04/12 05:57:49;;;;;;;12.70;7.35;;;10.10;86.90;;;;;;4954396;28;20027;-75
2022/04/12 06:00:15;;;;;;;13.32;7.32;;;10.20;87.60;;;;;;4937770;29;20631;-82
2022/04/12 06:02:41;;;;;;;20.20;7.28;;;10.30;87.20;;;;;;4954702;28;20118;-86
2022/04/12 06:05:07;;;;;;;10.32;7.25;;;10.40;86.40;;;;;;4938340;29;20125;-83
2022/04/12 06:07:34;;;;;;;10.25;7.00;;;10.50;86.30;;;;;;4937928;29;20043;-75
2022/04/12 06:10:01;;;;;;;14.55;7.25;;;10.60;85.80;;;;;;4954683;28;20035;-86
2022/04/12 06:12:28;;;;;;;11.98;6.32;;;10.70;85.50;;;;;;4954671;28;20488;-82
2022/04/12 06:14:55;;;;;;;10.80;6.82;;;10.70;85.40;;;;;;4955750;28;20448;-85
2022/04/12 06:17:22;;;;;;;13.73;7.82;;;10.80;85.30;;;;;;4954299;28;20383;-77
2022/04/12 06:19:48;;;;;;;14.18;7.20;;;10.80;85.00;;;;;;4958342;28;20047;-74
2022/04/12 06:22:13;;;;;;;11.23;6.90;;;10.90;85.00;;;;;;4953611;28;20053;-72
2022/04/12 06:24:39;;;;;;;9.82;6.20;;;11.00;85.10;;;;;;4952463;28;20100;-72
2022/04/12 06:27:05;;;;;;;16.13;6.78;;;11.10;84.20;;;;;;4953260;28;20424;-73
2022/04/12 06:29:33;;;;;;;11.18;6.63;;;11.20;83.90;;;;;;4949253;28;20031;-75
2022/04/12 06:32:00;;;;;;;10.88;5.65;;;11.30;83.90;;;;;;4934832;29;20046;-70
2022/04/12 06:34:25;;;;;;;10.32;5.53;;;11.40;83.90;;;;;;4952834;28;20129;-73
2022/04/12 06:36:51;;;;;;;8.25;6.30;;;11.50;83.30;;;;;;4951995;29;20242;-70
2022/04/12 06:39:17;;;;;;;11.45;5.97;;;11.70;83.80;;;;;;4947893;28;20050;-70
2022/04/12 06:41:42;;;;;;;10.30;6.15;;;11.80;83.10;;;;;;4953051;29;20395;-71
2022/04/12 06:44:08;;;;;;;14.18;7.03;;;11.80;83.00;;;;;;4952561;28;20975;-71
2022/04/12 06:46:33;;;;;;;9.88;5.97;;;11.80;83.60;;;;;;4951201;28;20042;-71
2022/04/12 06:48:59;;;;;;;10.55;5.95;;;11.90;83.90;;;;;;4952682;28;20114;-71
2022/04/12 06:51:26;;;;;;;9.93;6.00;;;12.00;83.50;;;;;;4952682;28;20039;-70
2022/04/12 06:53:53;;;;;;;9.13;5.50;;;12.00;83.10;;;;;;4955983;28;20035;-70
2022/04/12 06:56:20;;;;;;;12.20;5.75;;;12.10;83.20;;;;;;4952608;29;20050;-70
2022/04/12 06:58:46;;;;;;;10.48;5.50;;;12.10;83.30;;;;;;4952206;28;20126;-71
2022/04/12 07:01:11;;;;;;;9.80;5.03;;;12.20;83.40;;;;;;4948753;28;20421;-70
2022/04/12 07:03:37;;;;;;;11.25;5.40;;;12.30;82.30;;;;;;4953202;28;20451;-70
2022/04/12 07:06:03;;;;;;;13.15;5.05;;;12.30;82.30;;;;;;4953201;28;20031;-70
2022/04/12 07:08:29;;;;;;;10.95;5.45;;;12.40;82.20;;;;;;4953785;29;20032;-78
2022/04/12 07:10:56;;;;;;;11.00;5.60;;;12.50;83.20;;;;;;4954391;29;20036;-78
2022/04/12 07:13:21;;;;;;;9.50;5.05;;;12.60;81.90;;;;;;4954116;29;20047;-78
2022/04/12 07:15:47;;;;;;;7.97;4.88;;;12.70;82.10;;;;;;4954544;29;20039;-79
2022/04/12 07:18:13;;;;;;;11.00;6.18;;;12.70;82.40;;;;;;4937757;29;20051;-78
2022/04/12 07:20:39;;;;;;;12.90;5.80;;;12.80;82.30;;;;;;4954736;28;20068;-78
2022/04/12 07:23:04;;;;;;;11.13;6.10;;;12.90;81.50;;;;;;4936478;29;20051;-79
2022/04/12 07:25:30;;;;;;;9.90;5.18;;;12.90;81.20;;;;;;4954364;29;20039;-79
2022/04/12 07:27:55;;;;;;;11.90;5.10;;;12.90;81.70;;;;;;4955067;29;20035;-78
2022/04/12 07:30:21;;;;;;;155.00;113.68;;;12.90;82.00;;;;;;4953816;29;20036;-77
2022/04/12 07:32:47;;;;;;;267.92;204.75;;;13.10;82.40;;;;;;4954127;28;20130;-78
2022/04/12 07:35:12;;;;;;;29.95;21.95;;;13.20;82.00;;;;;;4954688;29;20395;-78
2022/04/12 07:37:43;;;;;;;14.88;6.30;;;13.30;81.30;;;;;;4954103;29;20094;-79
2022/04/12 07:40:09;;;;;;;10.57;5.10;;;13.30;81.00;;;;;;4956330;28;20081;-78
2022/04/12 07:42:35;;;;;;;8.65;4.47;;;13.40;80.90;;;;;;4941176;29;20043;-79
2022/04/12 07:45:01;;;;;;;9.48;4.97;;;13.50;80.90;;;;;;4957022;28;20054;-79
2022/04/12 07:47:26;;;;;;;7.07;4.60;;;13.60;81.50;;;;;;4958002;29;20043;-78
2022/04/12 07:49:52;;;;;;;8.02;4.50;;;13.70;81.00;;;;;;4958656;29;20479;-78
2022/04/12 07:52:18;;;;;;;10.13;4.85;;;13.70;80.40;;;;;;4957809;29;20071;-78
2022/04/12 07:54:43;;;;;;;9.85;4.68;;;13.80;80.40;;;;;;4958095;29;20440;-79
2022/04/12 07:57:09;;;;;;;6.68;3.90;;;13.90;80.10;;;;;;4958837;28;20506;-71
2022/04/12 07:59:35;;;;;;;7.80;4.07;;;14.00;80.10;;;;;;4957635;28;20376;-70
2022/04/12 08:02:00;;;;;;;11.40;5.10;;;14.10;80.60;;;;;;4956645;28;20039;-70
2022/04/12 08:04:26;;;;;;;7.82;4.43;;;14.10;80.00;;;;;;4957663;29;20510;-70
2022/04/12 08:06:51;;;;;;;8.10;4.30;;;14.10;80.00;;;;;;4957136;29;20050;-70
2022/04/12 08:09:17;;;;;;;6.15;4.40;;;14.10;80.00;;;;;;4957399;28;20108;-70
2022/04/12 08:11:43;;;;;;;14.40;4.60;;;14.20;80.30;;;;;;4956390;29;20039;-70
2022/04/12 08:14:08;;;;;;;8.55;4.13;;;14.30;79.60;;;;;;4957109;29;20035;-70
2022/04/12 08:16:34;;;;;;;6.88;3.83;;;14.40;80.20;;;;;;4956965;28;20080;-70
2022/04/12 08:19:00;;;;;;;7.03;3.72;;;14.40;80.30;;;;;;4957033;28;20473;-70
2022/04/12 08:21:39;;;;;;;4.80;3.05;;;14.40;80.60;;;;;;4956044;29;20500;-70
2022/04/12 08:24:06;;;;;;;8.00;3.30;;;14.50;79.60;;;;;;4955653;28;20035;-70
2022/04/12 08:26:32;;;;;;;6.18;2.80;;;14.50;79.30;;;;;;4959403;28;20391;-71
2022/04/12 08:28:58;;;;;;;6.28;2.75;;;14.60;79.60;;;;;;4955629;29;20035;-70
2022/04/12 08:31:24;;;;;;;6.45;3.88;;;14.70;78.70;;;;;;4955950;28;20052;-70
2022/04/12 08:33:49;;;;;;;6.18;3.05;;;14.70;79.00;;;;;;4955242;28;20043;-71
2022/04/12 08:36:16;;;;;;;6.75;2.53;;;14.70;78.80;;;;;;4955665;28;20464;-70
2022/04/12 08:38:45;;;;;;;5.30;3.10;;;14.80;78.80;;;;;;4943896;29;20036;-70
2022/04/12 08:41:12;;;;;;;6.10;2.70;;;14.70;78.30;;;;;;4952777;28;20031;-70
2022/04/12 08:43:41;;;;;;;5.68;2.53;;;14.80;79.20;;;;;;4955912;29;20411;-77
2022/04/12 08:46:07;;;;;;;5.95;2.97;;;15.00;81.90;;;;;;4957165;28;20031;-70
2022/04/12 08:48:34;;;;;;;10.55;3.03;;;15.30;80.20;;;;;;4949863;29;20035;-70
2022/04/12 08:51:01;;;;;;;4.80;2.22;;;15.50;78.70;;;;;;4953841;28;20046;-70
2022/04/12 08:53:28;;;;;;;6.45;2.47;;;15.60;76.50;;;;;;4955028;28;20105;-70
2022/04/12 08:55:55;;;;;;;5.80;2.13;;;15.70;75.70;;;;;;4931079;29;20078;-77
2022/04/12 08:58:22;;;;;;;7.50;2.30;;;15.60;75.40;;;;;;4950432;28;20512;-71
2022/04/12 09:00:54;;;;;;;8.85;2.22;;;15.60;76.50;;;;;;4936152;28;20067;-79
2022/04/12 09:03:20;;;;;;;6.88;1.92;;;15.70;75.90;;;;;;4934591;28;20047;-71
2022/04/12 09:05:46;;;;;;;6.72;2.30;;;15.80;75.60;;;;;;4951704;28;20041;-71
2022/04/12 09:08:29;;;;;;;7.35;2.08;;;15.90;74.70;;;;;;4948728;28;20476;-78
2022/04/12 09:11:05;;;;;;;5.47;2.20;;;15.80;74.00;;;;;;4931702;28;20066;-71
2022/04/12 09:13:32;;;;;;;6.80;2.30;;;15.80;73.80;;;;;;4948998;28;20069;-79
2022/04/12 09:15:58;;;;;;;5.13;2.03;;;15.90;74.20;;;;;;4934123;28;20049;-78
2022/04/12 09:18:50;;;;;;;7.55;2.08;;;16.00;74.40;;;;;;4955543;29;20042;-79
2022/04/12 09:21:18;;;;;;;5.38;1.90;;;16.00;73.90;;;;;;4949686;28;20043;-79
2022/04/12 09:23:51;;;;;;;7.05;2.20;;;16.10;74.20;;;;;;4952927;29;20047;-80
2022/04/12 09:26:29;;;;;;;4.20;1.80;;;16.30;74.70;;;;;;4953174;29;20066;-77
2022/04/12 09:28:57;;;;;;;4.88;2.20;;;16.50;73.40;;;;;;4946791;28;20527;-69
2022/04/12 09:31:25;;;;;;;5.30;2.55;;;16.70;72.60;;;;;;4952085;28;20055;-69
2022/04/12 09:33:52;;;;;;;6.20;2.92;;;16.80;74.00;;;;;;4953192;28;20059;-69
2022/04/12 09:36:20;;;;;;;8.20;2.78;;;17.00;73.30;;;;;;4953069;28;20404;-80
2022/04/12 09:38:54;;;;;;;5.35;2.97;;;17.10;72.30;;;;;;4955002;29;20403;-77
2022/04/12 09:41:23;;;;;;;7.38;3.22;;;17.10;72.20;;;;;;4945141;28;20099;-78
2022/04/12 09:43:52;;;;;;;8.90;3.75;;;17.00;70.60;;;;;;4945257;28;20039;-69
2022/04/12 09:46:18;;;;;;;6.60;3.20;;;17.00;71.00;;;;;;4953500;28;20077;-78
2022/04/12 09:48:49;;;;;;;11.90;2.83;;;17.10;70.90;;;;;;4957390;28;20067;-77
2022/04/12 09:51:16;;;;;;;5.55;3.00;;;17.10;70.50;;;;;;4937661;29;20043;-78
2022/04/12 09:53:45;;;;;;;6.47;2.90;;;17.10;70.70;;;;;;4955894;28;20051;-77
2022/04/12 09:56:30;;;;;;;6.53;3.20;;;17.30;71.00;;;;;;4937410;28;20098;-78
2022/04/12 09:59:00;;;;;;;6.68;3.38;;;17.40;69.90;;;;;;4949930;28;20039;-78
2022/04/12 10:01:27;;;;;;;4.60;2.90;;;17.40;69.60;;;;;;4932640;29;20098;-78
2022/04/12 10:03:58;;;;;;;6.60;3.10;;;17.50;69.30;;;;;;4954647;28;20067;-78
2022/04/12 10:06:26;;;;;;;6.57;2.58;;;17.60;70.40;;;;;;4954869;28;20479;-78
2022/04/12 10:08:57;;;;;;;5.60;3.22;;;17.90;69.80;;;;;;4954718;28;20031;-78
2022/04/12 10:11:23;;;;;;;3.38;1.70;;;18.00;67.80;;;;;;4946279;28;20047;-71
2022/04/12 10:13:50;;;;;;;4.40;2.38;;;18.10;68.40;;;;;;4944298;28;20123;-71
2022/04/12 10:16:19;;;;;;;5.35;1.95;;;18.30;68.20;;;;;;4963920;28;20043;-70
2022/04/12 10:18:45;;;;;;;5.15;1.70;;;18.50;66.60;;;;;;4945820;29;20118;-72
2022/04/12 10:21:12;;;;;;;3.83;1.70;;;18.60;65.20;;;;;;4944624;28;20110;-69
2022/04/12 10:23:41;;;;;;;4.85;1.73;;;18.80;65.60;;;;;;4952789;28;20043;-69
2022/04/12 10:26:09;;;;;;;3.55;1.73;;;19.00;65.00;;;;;;4949100;28;20031;-70
2022/04/12 10:28:35;;;;;;;5.68;1.88;;;19.20;64.50;;;;;;4937235;28;20043;-78
2022/04/12 10:31:12;;;;;;;4.10;2.05;;;19.30;63.60;;;;;;4949968;28;20039;-78
2022/04/12 10:33:37;;;;;;;5.35;1.90;;;19.30;63.80;;;;;;4951630;28;20050;-78
2022/04/12 10:36:06;;;;;;;6.88;1.98;;;19.40;63.30;;;;;;4932918;29;20039;-78
2022/04/12 10:38:43;;;;;;;3.83;1.50;;;19.40;64.40;;;;;;4949993;28;20403;-80
2022/04/12 10:41:30;;;;;;;4.07;1.88;;;19.60;63.90;;;;;;4952180;29;20043;-79
2022/04/12 10:43:58;;;;;;;3.20;1.52;;;19.80;62.50;;;;;;4950854;28;20035;-78
2022/04/12 10:46:26;;;;;;;6.15;1.77;;;19.90;63.10;;;;;;4951461;28;20043;-79
2022/04/12 10:48:56;;;;;;;6.43;1.80;;;20.10;61.30;;;;;;4953252;29;20491;-72
2022/04/12 10:51:38;;;;;;;4.63;1.45;;;20.20;59.00;;;;;;4934630;29;20130;-72
2022/04/12 10:54:05;;;;;;;5.32;1.42;;;20.40;59.30;;;;;;4952251;29;20046;-72
2022/04/12 10:56:31;;;;;;;5.28;1.65;;;20.40;60.00;;;;;;4951026;29;20039;-72
2022/04/12 10:58:57;;;;;;;3.90;1.50;;;20.50;59.60;;;;;;4951436;28;20485;-72
2022/04/12 11:01:46;;;;;;;5.78;1.23;;;20.50;61.00;;;;;;4951579;28;20086;-72
2022/04/12 11:04:14;;;;;;;4.57;1.65;;;20.70;59.40;;;;;;4950716;28;20039;-72
2022/04/12 11:06:42;;;;;;;4.70;1.70;;;20.80;60.70;;;;;;4948994;28;20102;-72
2022/04/12 11:09:10;;;;;;;6.50;1.63;;;20.90;58.20;;;;;;4950106;28;20369;-72
2022/04/12 11:11:42;;;;;;;5.53;1.90;;;20.80;56.10;;;;;;4951459;28;20066;-72
2022/04/12 11:14:38;;;;;;;4.95;1.83;;;20.80;58.20;;;;;;4946700;28;20118;-72
2022/04/12 11:17:14;;;;;;;6.50;1.92;;;20.90;58.20;;;;;;4952795;28;20086;-73
2022/04/12 11:19:45;;;;;;;3.83;1.30;;;20.80;57.10;;;;;;4951611;28;20039;-72
2022/04/12 11:22:14;;;;;;;5.13;1.95;;;20.90;56.50;;;;;;4951887;28;20039;-71
2022/04/12 11:24:40;;;;;;;5.93;1.90;;;20.90;55.70;;;;;;4944434;28;20040;-72
2022/04/12 11:27:08;;;;;;;4.50;1.80;;;21.00;56.30;;;;;;4927168;29;20047;-78
2022/04/12 11:29:35;;;;;;;4.20;1.50;;;20.70;56.60;;;;;;4944722;28;20035;-77
2022/04/12 11:32:02;;;;;;;4.65;1.73;;;20.90;56.50;;;;;;4950766;28;20066;-77
2022/04/12 11:34:29;;;;;;;6.65;1.83;;;21.20;56.60;;;;;;4943461;28;20043;-75
2022/04/12 11:37:09;;;;;;;5.20;1.70;;;21.50;54.70;;;;;;4945985;28;20054;-72
2022/04/12 11:39:43;;;;;;;5.80;1.80;;;21.90;53.90;;;;;;4930471;29;20035;-78
2022/04/12 11:42:15;;;;;;;16.90;2.45;;;22.30;50.20;;;;;;4928762;28;20035;-72
2022/04/12 11:44:49;;;;;;;5.53;1.33;;;22.30;49.00;;;;;;4943523;28;20043;-79
2022/04/12 11:47:17;;;;;;;5.43;1.65;;;22.60;48.30;;;;;;4946421;28;20055;-79
2022/04/12 11:49:44;;;;;;;7.30;1.55;;;22.60;48.70;;;;;;4943456;28;20023;-79
2022/04/12 11:52:14;;;;;;;7.07;1.98;;;23.00;50.60;;;;;;4942014;28;20040;-77
2022/04/12 11:54:42;;;;;;;6.43;1.80;;;23.30;49.50;;;;;;4945138;28;20050;-78
2022/04/12 11:57:15;;;;;;;4.38;1.77;;;23.50;48.00;;;;;;4946563;28;20055;-76
2022/04/12 11:59:49;;;;;;;10.15;1.90;;;23.40;48.90;;;;;;4949463;29;20050;-71
2022/04/12 12:02:20;;;;;;;4.95;1.77;;;23.30;48.40;;;;;;4947583;29;20122;-75
2022/04/12 12:04:53;;;;;;;6.30;1.70;;;23.40;46.30;;;;;;4945423;28;20103;-72
2022/04/12 12:07:20;;;;;;;5.32;1.83;;;23.60;47.30;;;;;;4945727;28;20455;-72
2022/04/12 12:09:58;;;;;;;4.15;1.50;;;23.90;47.40;;;;;;4943791;28;20105;-72
2022/04/12 12:12:35;;;;;;;5.43;1.67;;;24.20;46.10;;;;;;4946853;28;20039;-72
2022/04/12 12:15:22;;;;;;;6.38;1.50;;;24.00;43.80;;;;;;4927164;29;20465;-72
2022/04/12 12:17:50;;;;;;;6.38;1.55;;;24.00;43.70;;;;;;4944889;28;20031;-77
2022/04/12 12:20:17;;;;;;;4.85;1.70;;;24.30;44.20;;;;;;4943201;28;20050;-72
2022/04/12 12:22:45;;;;;;;4.65;1.77;;;23.90;42.50;;;;;;4942780;29;20153;-78
2022/04/12 12:25:18;;;;;;;5.82;1.55;;;23.90;43.90;;;;;;4950458;28;20111;-78
2022/04/12 12:27:52;;;;;;;3.55;1.45;;;24.20;42.10;;;;;;4948266;28;20138;-78
2022/04/12 12:30:22;;;;;;;5.18;1.45;;;24.50;42.50;;;;;;4936582;28;20059;-77
2022/04/12 12:33:00;;;;;;;;;;;24.80;42.50;;;;;;4967186;28;20126;-72
2022/04/12 12:35:28;;;;;;;5.88;1.67;;;24.70;40.90;;;;;;4935035;29;19925;-72
2022/04/12 12:38:11;;;;;;;6.32;1.83;;;24.80;43.00;;;;;;4948920;28;20058;-79
2022/04/12 12:40:38;;;;;;;3.25;1.30;;;24.70;42.10;;;;;;4959191;28;20047;-72
2022/04/12 12:43:06;;;;;;;4.32;1.40;;;24.70;41.30;;;;;;4955696;28;20043;-73
2022/04/12 12:45:35;;;;;;;7.05;1.70;;;24.40;41.20;;;;;;4951308;28;20075;-73
2022/04/12 12:48:01;;;;;;;6.22;1.80;;;24.50;37.40;;;;;;4947970;28;20042;-73